< < Back
Terminal Aerodrome Forecast


Current Version              Previous Versions:   1  2  3  4  5  6  7  8  9  

Terminal Aerodrome Forecast

259
FTUS42 KGSP 242328
TAFAND
TAF
KAND 242328Z 2500/2524 23005KT P6SM FEW060 SCT250
     FM250200 22003KT P6SM FEW250
     FM251000 VRB02KT 5SM BR FEW030
     FM251200 19003KT P6SM FEW060
     FM252100 22007KT P6SM VCTS BKN060CB=

Latest METAR

099
SAUS70 KWBC 251100 RRB
MTRAND
METAR KAND 251056Z AUTO 00000KT 10SM CLR 24/22 A3007 RMK AO2 SLP170
T02440217


USA.gov is the U.S. government's official web portal to all federal, state and local government web resources and services.